Latest Weather Observations for Inverell RS

IDN60801

Issued at 7:03 pm EST Tuesday 30 August 2016 (issued every 30 minutes, with the page automatically refreshed every 10 minutes)

About weather observations | Map of weather stations | Latest weather observations for NSW | Other Formats
Station Details ID: 056018 Name: INVERELL RESEARCH CENTRE Lat: -29.78 Lon: 151.08 Height: 664.0 m
Data from the previous 72 hours. | See also: Recent months at Inverell RS
Date/Time
EST
Temp
°C
App
Temp
°C
Dew
Point
°C
Rel
Hum
%
Delta-T
°C
Wind Press
QNH
hPa
Press
MSL
hPa
Rain since
9am
mm
Dir  Spd
km/h
Gust
km/h
Spd
kts
Gust
kts
30/07:00pm 14.9 13.0 9.0 68 3.1 N 9 11 5 6 1025.2 - 0.0
30/06:30pm 16.7 14.2 8.3 57 4.4 NNW 11 15 6 8 1024.9 - 0.0
30/06:00pm 17.1 14.6 8.4 56 4.6 NNW 11 17 6 9 1024.7 1025.0 0.0
30/05:30pm 17.8 15.4 8.8 55 4.8 NNW 11 15 6 8 1024.8 - 0.0
30/05:00pm 18.6 16.1 8.2 50 5.5 NNW 11 15 6 8 1024.6 - 0.0
30/04:30pm 19.3 16.1 8.4 49 5.8 N 15 20 8 11 1024.6 - 0.0
30/04:00pm 19.7 17.1 9.2 50 5.7 NNW 13 19 7 10 1024.6 - 0.0
30/03:30pm 20.2 17.2 9.2 49 6.0 N 15 22 8 12 1024.7 - 0.0
30/03:00pm 20.3 17.6 9.1 48 6.1 N 13 26 7 14 1024.9 1025.2 0.0
30/02:30pm 20.1 17.4 8.8 48 6.1 N 13 20 7 11 1025.0 - 0.0
30/02:00pm 21.0 18.3 8.9 46 6.6 N 13 26 7 14 1025.6 - 0.0
30/01:30pm 20.4 17.5 8.3 45 6.5 N 13 20 7 11 1026.0 - 0.0
30/01:00pm 20.6 18.1 8.1 44 6.7 NNW 11 20 6 11 1026.2 - 0.0
30/12:30pm 19.5 16.4 7.3 45 6.4 N 13 22 7 12 1026.7 - 0.0
30/12:00pm 19.4 16.4 7.9 47 6.1 N 13 22 7 12 1027.3 1027.6 0.0
30/11:30am 19.4 16.2 8.6 49 5.8 N 15 24 8 13 1027.5 - 0.0
30/11:00am 18.1 15.7 8.5 53 5.1 NNE 11 19 6 10 1028.0 - 0.0
30/10:30am 17.9 16.0 8.9 55 4.8 N 9 17 5 9 1028.6 - 0.0
30/10:00am 16.2 14.0 7.9 58 4.3 N 9 15 5 8 1028.8 - 0.0
30/09:30am 16.3 14.6 8.5 60 4.1 NNE 7 13 4 7 1028.7 - 0.0
30/09:00am 14.8 12.6 7.8 63 3.6 N 9 13 5 7 1029.0 1029.3 0.0
30/08:30am 14.2 12.0 8.0 66 3.2 NE 9 13 5 7 1028.8 - 0.0
30/08:00am 13.3 11.7 7.8 69 2.8 NNE 6 9 3 5 1028.6 - 0.0
30/07:30am 12.6 11.7 7.6 71 2.5 E 2 9 1 5 1028.2 - 0.0
30/07:00am 10.6 9.9 7.1 79 1.7 CALM 0 0 0 0 1028.3 - 0.0
30/06:30am 10.4 8.9 6.9 79 1.7 ESE 4 7 2 4 1028.0 - 0.0
30/06:00am 9.4 7.3 6.7 83 1.3 SE 7 9 4 5 1027.3 1027.6 0.0
30/05:30am 9.6 7.6 7.1 84 1.2 SE 7 9 4 5 1026.6 - 0.0
30/05:00am 9.3 8.7 7.3 87 1.0 CALM 0 0 0 0 1026.3 - 0.0
30/04:30am 10.2 8.3 7.4 83 1.4 N 7 9 4 5 1025.8 - 0.0
30/04:00am 10.3 8.4 7.5 83 1.4 ENE 7 11 4 6 1025.1 - 0.0
30/03:30am 10.3 8.6 7.7 84 1.3 E 6 9 3 5 1025.2 - 0.0
30/03:00am 9.9 8.0 7.5 85 1.2 SE 7 9 4 5 1025.1 1025.4 0.0
30/02:30am 9.9 7.9 7.3 84 1.3 SE 7 11 4 6 1025.0 - 0.0
30/02:00am 10.4 8.1 7.4 82 1.5 SE 9 11 5 6 1025.2 - 0.0
30/01:30am 10.5 8.4 6.8 78 1.8 SE 7 9 4 5 1025.2 - 0.0
30/01:00am 10.9 8.9 6.4 74 2.2 ESE 6 7 3 4 1025.8 - 0.0
30/12:30am 11.1 10.2 6.1 71 2.4 CALM 0 7 0 4 1025.6 - 0.0
30/12:00am 10.4 9.4 5.8 73 2.2 CALM 0 0 0 0 1025.7 1026.0 0.0
 
Date/Time
EST
Temp
°C
App
Temp
°C
Dew
Point
°C
Rel
Hum
%
Delta-T
°C
Wind Press
QNH
hPa
Press
MSL
hPa
Rain since
9am
mm
Dir  Spd
km/h
Gust
km/h
Spd
kts
Gust
kts
29/11:30pm 11.3 10.4 5.9 69 2.6 CALM 0 0 0 0 1025.8 - 0.0
29/11:00pm 11.3 8.6 5.7 68 2.7 ESE 9 11 5 6 1025.6 - 0.0
29/10:30pm 11.4 9.0 5.3 66 2.9 SE 7 9 4 5 1026.0 - 0.0
29/10:00pm 11.4 8.5 4.8 64 3.1 SE 9 11 5 6 1026.1 - 0.0
29/09:30pm 10.9 7.7 3.1 58 3.5 SSE 9 13 5 7 1026.2 - 0.0
29/09:00pm 11.4 7.8 0.4 46 4.7 SE 9 13 5 7 1026.1 1026.4 0.0
29/08:30pm 11.1 7.3 -0.4 45 4.8 SSE 9 11 5 6 1026.1 - 0.0
29/08:00pm 13.1 9.5 -2.4 34 6.3 NW 7 11 4 6 1025.8 - 0.0
29/07:30pm 14.0 10.3 -3.0 30 6.9 NW 7 9 4 5 1025.4 - 0.0
29/07:00pm 13.3 9.6 -3.1 32 6.6 NW 7 9 4 5 1025.2 - 0.0
29/06:30pm 14.6 10.8 -3.5 28 7.3 NW 7 9 4 5 1024.8 - 0.0
29/06:00pm 15.6 11.5 -2.7 28 7.6 NW 9 13 5 7 1024.8 1025.1 0.0
29/05:30pm 16.0 12.5 -1.2 31 7.4 NW 7 9 4 5 1024.7 - 0.0
29/05:00pm 17.8 14.6 -0.5 29 8.1 WNW 6 7 3 4 1024.5 - 0.0
29/04:30pm 18.9 15.3 -3.4 22 9.4 NW 6 9 3 5 1024.3 - 0.0
29/04:00pm 20.2 15.2 -8.1 14 11.1 N 11 15 6 8 1024.4 - 0.0
29/03:30pm 20.2 15.6 -8.1 14 11.1 NNW 9 15 5 8 1024.1 - 0.0
29/03:00pm 20.1 15.2 -6.7 16 10.7 NNW 11 15 6 8 1024.1 1024.3 0.0
29/02:30pm 20.5 16.0 -7.2 15 11.0 N 9 17 5 9 1024.4 - 0.0
29/02:00pm 20.5 16.2 -5.1 17 10.6 E 9 13 5 7 1024.4 - 0.0
29/01:30pm 20.0 15.7 -4.4 19 10.2 N 9 15 5 8 1024.3 - 0.0
29/01:00pm 19.8 15.9 -1.8 23 9.5 NNE 9 17 5 9 1024.6 - 0.0
29/12:30pm 19.3 15.1 -3.8 20 9.7 NNE 9 15 5 8 1024.8 - 0.0
29/12:00pm 19.0 15.1 -5.0 19 9.8 N 7 15 4 8 1025.4 1025.6 0.0
29/11:30am 18.2 13.8 -5.5 19 9.6 ENE 9 13 5 7 1025.9 - 0.0
29/11:00am 17.2 13.1 -2.8 25 8.4 ESE 9 13 5 7 1026.1 - 0.0
29/10:30am 16.7 13.0 0.0 32 7.4 E 9 15 5 8 1026.5 - 0.0
29/10:00am 15.6 12.1 1.1 37 6.5 E 9 13 5 7 1026.8 - 0.0
29/09:30am 14.3 11.3 1.0 40 5.9 NE 6 9 3 5 1027.2 - 0.0
29/09:00am 13.0 10.1 2.7 49 4.7 E 7 11 4 6 1026.7 1027.0 0.0
29/08:30am 11.7 9.1 3.4 56 3.8 ESE 6 11 3 6 1026.6 - 0.0
29/08:00am 9.0 6.4 4.4 73 2.1 ESE 7 9 4 5 1026.4 - 0.0
29/07:30am 6.0 3.5 3.5 84 1.1 SE 6 7 3 4 1026.1 - 0.0
29/07:00am 2.6 -0.5 1.3 91 0.5 SSE 7 11 4 6 1025.8 - 0.0
29/06:30am 2.3 -1.3 0.5 88 0.7 S 9 11 5 6 1025.5 - 0.0
29/06:00am 3.4 0.2 0.6 82 1.1 SSE 7 9 4 5 1024.9 1025.2 0.0
29/05:30am 3.1 -0.1 0.6 84 1.0 S 7 11 4 6 1024.6 - 0.0
29/05:00am 4.0 2.1 0.5 78 1.4 CALM 0 0 0 0 1024.4 - 0.0
29/04:30am 3.4 0.2 0.6 82 1.1 SSE 7 7 4 4 1023.9 - 0.0
29/04:00am 3.4 0.2 0.6 82 1.1 S 7 7 4 4 1023.8 - 0.0
29/03:30am 3.1 -0.1 0.6 84 1.0 SSE 7 9 4 5 1023.8 - 0.0
29/03:00am 4.5 1.3 0.8 77 1.5 SSE 7 7 4 4 1023.8 1024.0 0.0
29/02:30am 5.7 2.7 0.5 69 2.1 S 6 7 3 4 1024.0 - 0.0
29/02:00am 6.2 3.0 0.8 68 2.2 S 7 9 4 5 1024.0 - 0.0
29/01:30am 4.7 2.8 0.7 75 1.6 CALM 0 0 0 0 1024.1 - 0.0
29/01:00am 5.5 3.6 0.8 72 1.9 CALM 0 0 0 0 1024.3 - 0.0
29/12:30am 5.7 2.7 0.8 71 2.0 SSE 6 7 3 4 1024.4 - 0.0
29/12:00am 6.7 3.7 0.9 66 2.4 S 6 7 3 4 1024.3 1024.6 0.0
 
Date/Time
EST
Temp
°C
App
Temp
°C
Dew
Point
°C
Rel
Hum
%
Delta-T
°C
Wind Press
QNH
hPa
Press
MSL
hPa
Rain since
9am
mm
Dir  Spd
km/h
Gust
km/h
Spd
kts
Gust
kts
28/11:30pm 6.5 3.3 0.6 66 2.4 S 7 9 4 5 1024.4 - 0.0
28/11:00pm 6.9 3.7 0.8 65 2.5 S 7 9 4 5 1024.7 - 0.0
28/10:30pm 6.5 3.4 1.2 69 2.2 SSE 7 9 4 5 1024.6 - 0.0
28/10:00pm 7.0 3.8 0.7 64 2.6 SSW 7 9 4 5 1024.6 - 0.0
28/09:30pm 7.0 5.2 1.5 68 2.3 CALM 0 0 0 0 1024.6 - 0.0
28/09:00pm 8.4 4.9 1.3 61 3.0 W 9 15 5 8 1024.5 1024.8 0.0
28/08:30pm 11.4 7.0 0.1 45 4.8 W 13 17 7 9 1024.3 - 0.0
28/08:00pm 11.8 7.7 -0.3 43 5.1 W 11 15 6 8 1024.0 - 0.0
28/07:30pm 11.9 7.7 -0.8 41 5.3 W 11 17 6 9 1023.8 - 0.0
28/07:00pm 11.8 7.7 -0.3 43 5.1 W 11 13 6 7 1023.5 - 0.0
28/06:30pm 10.9 7.3 0.3 48 4.5 W 9 13 5 7 1023.1 - 0.0
28/06:00pm 11.2 7.5 0.1 46 4.7 W 9 13 5 7 1023.0 1023.3 0.0
28/05:30pm 12.2 8.6 0.3 44 5.1 WNW 9 9 5 5 1022.8 - 0.0
28/05:00pm 15.8 12.2 -1.9 29 7.5 W 7 9 4 5 1022.5 - 0.0
28/04:30pm 16.1 11.9 -3.7 25 8.1 WNW 9 13 5 7 1022.4 - 0.0
28/04:00pm 16.6 12.6 -1.9 28 7.9 SW 9 13 5 7 1022.5 - 0.0
28/03:30pm 16.4 13.0 -0.8 31 7.5 SW 7 13 4 7 1022.3 - 0.0
28/03:00pm 16.4 12.6 -0.8 31 7.5 W 9 19 5 10 1022.2 1022.4 0.0
28/02:30pm 16.8 12.7 -0.1 31 7.5 W 11 17 6 9 1022.5 - 0.0
28/02:00pm 16.0 11.6 -2.3 28 7.7 WSW 11 17 6 9 1022.5 - 0.0
28/01:30pm 16.5 12.3 -1.0 30 7.6 WSW 11 19 6 10 1022.7 - 0.0
28/01:00pm 16.3 12.0 -1.8 29 7.7 W 11 17 6 9 1023.1 - 0.0
28/12:30pm 16.2 12.9 2.4 39 6.4 S 9 19 5 10 1023.4 - 0.0
28/12:00pm 16.1 12.7 1.7 38 6.6 NNW 9 13 5 7 1023.9 1024.1 0.0
28/11:30am 15.2 11.4 1.5 39 6.2 SSW 11 17 6 9 1024.6 - 0.0
28/11:00am 14.1 10.4 2.2 44 5.4 SSW 11 15 6 8 1025.0 - 0.0
28/10:30am 13.4 10.0 2.1 46 5.1 SSW 9 13 5 7 1025.1 - 0.0
28/10:00am 12.9 9.7 3.1 51 4.5 S 9 13 5 7 1025.2 - 0.0
28/09:30am 12.4 9.4 4.3 57 3.8 SE 9 13 5 7 1025.2 - 0.0
28/09:00am 10.9 8.4 4.7 65 2.9 E 7 9 4 5 1025.4 1025.6 0.0
28/08:30am 9.7 7.1 4.0 67 2.6 SE 7 9 4 5 1025.0 - 0.0
28/08:00am 8.8 5.9 4.9 76 1.8 SSE 9 11 5 6 1025.1 - 0.0
28/07:30am 6.0 3.0 4.0 87 0.9 S 9 11 5 6 1024.9 - 0.0
28/07:00am 5.3 2.6 3.9 91 0.6 SSE 7 9 4 5 1024.4 - 0.0
28/06:30am 1.7 -1.2 1.4 98 0.1 SSE 6 7 3 4 1024.0 - 0.0
28/06:00am 4.3 0.3 3.1 92 0.5 SSW 13 15 7 8 1024.0 1024.2 0.0
28/05:30am 4.3 0.8 3.4 94 0.4 SSW 11 13 6 7 1023.6 - 0.0
28/05:00am 1.7 -1.7 1.7 100 0.0 S 9 11 5 6 1023.2 - 0.0
28/04:30am 1.5 -2.4 1.2 98 0.1 S 11 15 6 8 1022.8 - 0.0
28/04:00am 2.0 -1.0 2.0 100 0.0 S 7 9 4 5 1022.7 - 0.0
28/03:30am 2.8 -1.2 2.6 99 0.1 SSW 13 17 7 9 1022.7 - 0.0
28/03:00am 3.7 0.5 3.0 95 0.3 SW 9 13 5 7 1022.8 1023.0 0.0
28/02:30am 4.8 2.3 3.6 92 0.5 SSW 6 7 3 4 1022.9 - 0.0
28/02:00am 5.3 4.0 3.9 91 0.6 CALM 0 0 0 0 1023.2 - 0.0
28/01:30am 5.0 2.8 3.6 91 0.6 SSW 4 7 2 4 1023.3 - 0.0
28/01:00am 5.6 3.0 4.0 89 0.7 SW 7 11 4 6 1023.5 - 0.0
28/12:30am 5.1 2.4 3.7 91 0.6 SSE 7 9 4 5 1023.4 - 0.0
28/12:00am 5.9 2.9 4.1 88 0.8 SW 9 11 5 6 1023.5 1023.8 0.0
 
Date/Time
EST
Temp
°C
App
Temp
°C
Dew
Point
°C
Rel
Hum
%
Delta-T
°C
Wind Press
QNH
hPa
Press
MSL
hPa
Rain since
9am
mm
Dir  Spd
km/h
Gust
km/h
Spd
kts
Gust
kts
27/11:30pm 6.0 4.7 4.0 87 0.9 CALM 0 0 0 0 1023.3 - 0.0
27/11:00pm 6.2 4.4 3.7 84 1.1 SSE 2 6 1 3 1023.2 - 0.0
27/10:30pm 7.6 4.6 4.0 78 1.6 SW 9 11 5 6 1023.3 - 0.0
27/10:00pm 8.2 5.2 4.0 75 1.9 SW 9 13 5 7 1023.3 - 0.0
27/09:30pm 7.9 4.8 3.6 74 1.9 WSW 9 13 5 7 1023.2 - 0.0
27/09:00pm 8.6 5.1 3.7 71 2.2 WSW 11 15 6 8 1023.3 1023.6 0.0
27/08:30pm 9.2 6.1 3.7 68 2.5 SW 9 13 5 7 1022.9 - 0.0
27/08:00pm 9.4 6.0 3.9 68 2.5 SW 11 15 6 8 1022.8 - 0.0
27/07:30pm 9.7 7.2 3.7 66 2.7 SW 6 13 3 7 1022.7 - 0.0

Other Formats:

Comma delimited format used in spreadsheet applications
http://www.bom.gov.au/fwo/IDN60801/IDN60801.94541.axf

JavaScript Object Notation format (JSON) in row-major order
http://www.bom.gov.au/fwo/IDN60801/IDN60801.94541.json